Weather at Boulder Municipal Airport

Public forecast

Using degrees Fahrenheit for public forecast. Weather courtesy of forecast.io.

Current aviation weather report (METAR) for Boulder Municipal Airport

Retrieved 2022/08/18 04:15 UTC (22 minutes ago):

KBDU 180415Z AUTO 24004KT 10SM CLR 22/04 A3024 RMK AO2

Closest aviation forecast (TAF) to Boulder Municipal Airport

Closest forecast is Rocky Mountain Metropolitan Airport, 9.3 nm (17.2 km) SSE. Retrieved 2022-08-18 00:33 UTC (4 hours ago):

TAF KBJC 172330Z 1800/1824 07007KT P6SM SCT100 FM180200 VRB05KT P6SM FEW090 FM180400 29005KT P6SM SKC FM181600 03007KT P6SM FEW080 FM182100 04009KT P6SM SCT080